D/T METAR WX W/DIR W/SPE G/SPE TEMP DEWP
19/03/19 03:13 EGVA 190313Z AUTO 25006KT M M BKN005 BKN012 BKN023 OVC029 07/06 A3025 RMK AO2 SLP249 RVRNO $ WSW (250°) 6.9mph 7°C 6°C
19/03/19 02:46 EGVA 190246Z AUTO 25004KT M M BKN028 OVC034 06/06 A3025 RMK AO2 SLP250 RVRNO $ WSW (250°) 4.6mph 6°C 6°C
19/03/19 02:21 EGVA 190221Z AUTO 23004KT M M BKN034 06/06 A3025 RMK AO2 SLP250 RVRNO $ SW (230°) 4.6mph 6°C 6°C
19/03/19 01:53 EGVA 190153Z AUTO 00000KT M M SCT023 BKN039 06/06 A3025 RMK AO2 SLP249 RVRNO $ N (0°) 6°C 6°C
19/03/19 01:13 EGVA 190113Z AUTO 24003KT M M SCT004 SCT027 BKN047 06/06 A3025 RMK AO2 SLP249 RVRNO $ WSW (240°) 3.5mph 6°C 6°C
18/03/19 23:56 EGVA 182356Z AUTO 24006KT M M BKN029 OVC035 07/06 A3024 RMK AO2 SLP246 T00670061 10083 20067 401010018 52006 RVRNO $ WSW (240°) 6.9mph 6.7°C 6.1°C
18/03/19 22:59 EGVA 182259Z 26007KT 9999 BKN034 07/06 A3024 RMK AO2A SLP246 T00700061 RVRNO $ W (260°) 8.1mph 7°C 6.1°C
18/03/19 21:58 EGVA 182158Z 26006KT 9999 BKN032 OVC040 07/06 A3022 RMK AO2A SLP239 T00700061 RVRNO $ W (260°) 6.9mph 7°C 6.1°C
18/03/19 20:56 EGVA 182056Z 25006KT 9999 BKN039 BKN090 07/06 A3022 RMK AO2A SLP239 T00690058 52014 RVRNO $ WSW (250°) 6.9mph 6.9°C 5.8°C
18/03/19 19:58 EGVA 181958Z 26006KT 9999 OVC039 08/06 A3020 RMK AO2A SLP233 T00780061 RVRNO $ W (260°) 6.9mph 7.8°C 6.1°C
18/03/19 18:56 EGVA 181856Z 25005KT 9999 OVC041 08/06 A3019 RMK AO2A SLP230 T00800056 RVRNO $ WSW (250°) 5.8mph 8°C 5.6°C
18/03/19 17:58 EGVA 181758Z 25005KT 9999 FEW026 FEW033 BKN042 08/06 A3018 RMK A02A SLP226 P0000 60000 T00820055 10101 20082 53011 RVRNO $ WSW (250°) 5.8mph 8.2°C 5.5°C
18/03/19 17:36 EGVA 181736Z 26007KT 9999 FEW018 SCT029 BKN035 BKN046 08/06 A3017 RMK AO2A SLP223 RVRNO $ W (260°) 8.1mph 8°C 6°C
18/03/19 16:56 EGVA 181656Z 25007KT 9999 BKN017 BKN025 09/06 A3016 RMK A02A SLP219 T00870056 RVRNO $ WSW (250°) 8.1mph 8.7°C 5.6°C
18/03/19 15:56 EGVA 181556Z 26008KT 9999 SCT020 BKN025 09/05 A3015 RMK A02A SLP216 T00910047 RVRNO $ W (260°) 9.2mph 9.1°C 4.7°C
18/03/19 15:31 EGVA 181531Z AUTO 25010KT M M SCT019 SCT023 SCT034 09/05 A3015 RMK AO2 SLP216 RVRNO $ WSW (250°) 11.5mph 9°C 5°C
18/03/19 15:21 EGVA 181521Z AUTO 27010KT M M SCT019 BKN033 09/05 A3014 RMK AO2 SLP213 RVRNO $ W (270°) 11.5mph 9°C 5°C
18/03/19 14:31 EGVA 181431Z AUTO 26009KT M M FEW023 SCT032 09/05 A3014 RMK AO2 SLP212 RVRNO $ W (260°) 10.4mph 9°C 5°C
18/03/19 14:16 EGVA 181416Z AUTO 25009KT M M SCT023 BKN035 09/04 A3014 RMK AO2 SLP213 RVRNO $ WSW (250°) 10.4mph 9°C 4°C
18/03/19 12:56 EGVA 181256Z 28012KT 9999 BKN025 BKN041 10/04 A3014 RMK AO2A SLP212 T00960038 RVRNO $ W (280°) 13.8mph 9.6°C 3.8°C
18/03/19 12:41 EGVA 181241Z 27011KT 9999 BKN026 10/04 A3014 RMK AO2A SLP212 RVRNO $ W (270°) 12.7mph 10°C 4°C
18/03/19 11:56 EGVA 181156Z 26010KT 9999 SCT029 BKN036 09/03 A3015 RMK AO2A SLP216 T00940034 10094 20029 51008 RVRNO $ W (260°) 11.5mph 9.4°C 3.4°C
18/03/19 10:56 EGVA 181056Z 27012KT 9999 SCT028 09/03 A3015 RMK AO2A SLP216 T00860032 RVRNO $ W (270°) 13.8mph 8.6°C 3.2°C
18/03/19 09:56 EGVA 180956Z 27012KT 9999 FEW100 09/04 A3015 RMK AO2A SLP215 T00860040 RVRNO $ W (270°) 13.8mph 8.6°C 4°C
18/03/19 08:56 EGVA 180856Z 27008KT 9999 CLR 07/04 A3012 RMK AO2A SLP205 T00690042 52014 RVRNO $ W (270°) 9.2mph 6.9°C 4.2°C
18/03/19 07:56 EGVA 180756Z 23004KT 9999 CLR 05/03 A3011 RMK AO2A SLP203 T00520034 RVRNO $ SW (230°) 4.6mph 5.2°C 3.4°C
18/03/19 06:56 EGVA 180656Z 25005KT 9999 CLR 03/02 A3010 RMK AO2A SLP200 T00310016 RVRNO $ WSW (250°) 5.8mph 3.1°C 1.6°C
18/03/19 05:56 EGVA 180556Z 23003KT 9999 FEW120 FEW150 03/01 A3008 RMK AO2A SLP193 T00330013 10050 20018 52014 RVRNO $ SW (230°) 3.5mph 3.3°C 1.3°C
18/03/19 04:56 EGVA 180456Z 22005KT 9999 CLR 03/01 A3007 RMK AO2A SLP190 T00270011 RVRNO $ SW (220°) 5.8mph 2.7°C 1.1°C
18/03/19 03:56 EGVA 180356Z AUTO 23003KT M M CLR 03/01 A3005 RMK AO2 SLP182 T00260007 RVRNO $ SW (230°) 3.5mph 2.6°C 0.7°C
18/03/19 02:56 EGVA 180256Z AUTO 19003KT M M CLR 03/01 A3004 RMK AO2 SLP179 T00310008 52017 RVRNO $ S (190°) 3.5mph 3.1°C 0.8°C
18/03/19 01:56 EGVA 180156Z AUTO 00000KT M M CLR 03/01 A3003 RMK AO2 SLP175 T00260007 RVRNO $ N (0°) 2.6°C 0.7°C
18/03/19 00:56 EGVA 180056Z AUTO 31004KT M M CLR 05/02 A3001 RMK AO2 SLP168 T00480020 RVRNO $ NW (310°) 4.6mph 4.8°C 2°C
17/03/19 23:56 EGVA 172356Z AUTO 25005KT M M CLR 02/01 A2999 RMK AO2 SLP162 T00210008 10065 20021 401010017 52026 RVRNO $ WSW (250°) 5.8mph 2.1°C 0.8°C
17/03/19 22:56 EGVA 172256Z AUTO 27006KT M M CLR 04/01 A2996 RMK AO2 SLP152 T00370014 RVRNO $ W (270°) 6.9mph 3.7°C 1.4°C
17/03/19 21:56 EGVA 172156Z AUTO 30008KT M M CLR 06/02 A2994 RMK AO2 SLP145 T00620023 RVRNO $ WNW (300°) 9.2mph 6.2°C 2.3°C
17/03/19 21:26 EGVA 172126Z AUTO 29011KT M M SCT045 06/02 A2992 RMK AO2 SLP138 RVRNO $ WNW (290°) 12.7mph 6°C 2°C
17/03/19 20:56 EGVA 172056Z AUTO 29010KT M M BKN047 06/02 A2991 RMK AO2 SLP135 T00630024 52035 RVRNO $ WNW (290°) 11.5mph 6.3°C 2.4°C
17/03/19 19:56 EGVA 171956Z AUTO 21004KT M M FEW042 04/03 A2987 RMK AO2 SLP122 T00440029 RVRNO $ SSW (210°) 4.6mph 4.4°C 2.9°C
17/03/19 18:56 EGVA 171856Z AUTO 25008KT M M OVC055 06/04 A2985 RMK AO2 SLP115 T00560036 RVRNO $ WSW (250°) 9.2mph 5.6°C 3.6°C
17/03/19 18:01 EGVA 171801Z AUTO 27008KT M M SCT026 BKN050 06/03 A2981 RMK AO2 SLP101 RVRNO $ W (270°) 9.2mph 6°C 3°C
17/03/19 17:48 EGVA 171748Z AUTO 27011KT M M BKN025 06/03 A2980 RMK AO2 DZB1658E09RAB09E48 SLP098 RVRNO $ W (270°) 12.7mph 6°C 3°C
17/03/19 17:13 EGVA 171713Z AUTO 28009KT M -RA SCT021 SCT027 05/03 A2979 RMK AO2 DZB1658E09RAB09 SLP095 RVRNO $ -RA W (280°) 10.4mph 5°C 3°C
17/03/19 16:42 EGVA 171642Z AUTO 29014KT M -RA BKN020 06/02 A2978 RMK AO2 RAB27 SLP091 RVRNO $ -RA WNW (290°) 16.1mph 6°C 2°C
17/03/19 15:56 EGVA 171556Z AUTO 26018KT M M FEW050 SCT065 09/M01 A2974 RMK AO2 PK WND 28031/1456 SLP077 T00911011 RVRNO $ W (260°) 20.7mph 9.1°C -1.1°C
17/03/19 14:56 EGVA 171456Z AUTO 28016G25KT M M CLR 08/M02 A2974 RMK AO2 PK WND 28028/00 SLP077 60000 T00821022 53013 RVRNO $ W (280°) 18.4mph 28.8mph 8.2°C -2.2°C
17/03/19 13:56 EGVA 171356Z AUTO 27017G27KT M M FEW050 FEW060 09/M01 A2971 RMK AO2 PK WND 28031/23 RAB39E49 SLP066 P0000 T00911011 RVRNO $ W (270°) 19.6mph 31.1mph 9.1°C -1.1°C
17/03/19 13:49 EGVA 171349Z AUTO 26021G27KT M M FEW050 FEW070 SCT210 09/M01 A2971 RMK AO2 RAB39E49 SLP066 RVRNO $ W (260°) 24.2mph 31.1mph 9°C -1°C
17/03/19 12:56 EGVA 171256Z AUTO 29017G25KT M M FEW048 10/M01 A2970 RMK AO2 PK WND 28028/16 SLP063 T00991012 RVRNO $ WNW (290°) 19.6mph 28.8mph 9.9°C -1.2°C
17/03/19 11:56 EGVA 171156Z AUTO 29017KT M M FEW046 FEW210 08/M01 A2970 RMK AO2 SLP063 T00841009 10091 20017 52018 RVRNO $ WNW (290°) 19.6mph 8.4°C -0.9°C
17/03/19 10:56 EGVA 171056Z AUTO 29015G22KT M M FEW039 07/M01 A2969 RMK AO2 PK WND 27027/15 SLP060 T00731011 RVRNO $ WNW (290°) 17.3mph 25.3mph 7.3°C -1.1°C
17/03/19 09:56 EGVA 170956Z AUTO 28015G21KT M M FEW031 FEW038 07/01 A2967 RMK AO2 SLP053 T00680007 RVRNO $ W (280°) 17.3mph 24.2mph 6.8°C 0.7°C
17/03/19 08:56 EGVA 170856Z AUTO 27017G24KT M M FEW029 06/01 A2965 RMK AO2 SLP046 T00590012 52027 RVRNO $ W (270°) 19.6mph 27.6mph 5.9°C 1.2°C
17/03/19 07:56 EGVA 170756Z AUTO 26014KT M M CLR 05/02 A2961 RMK AO2 SLP032 T00450019 RVRNO $ W (260°) 16.1mph 4.5°C 1.9°C
17/03/19 06:56 EGVA 170656Z AUTO 25008KT M M CLR 03/01 A2959 RMK AO2 SLP026 T00260005 RVRNO $ WSW (250°) 9.2mph 2.6°C 0.5°C
17/03/19 05:56 EGVA 170556Z AUTO 26006KT M M FEW032 02/00 A2957 RMK AO2 SLP019 T00170004 10059 20017 52025 RVRNO $ W (260°) 6.9mph 1.7°C 0.4°C
17/03/19 04:56 EGVA 170456Z AUTO 26009KT M M CLR 02/01 A2954 RMK AO2 SLP009 T00240008 RVRNO $ W (260°) 10.4mph 2.4°C 0.8°C
17/03/19 03:56 EGVA 170356Z AUTO 26010KT M M FEW025 04/02 A2951 RMK AO2 SLP998 T00350020 RVRNO $ W (260°) 11.5mph 3.5°C 2°C
17/03/19 02:56 EGVA 170256Z AUTO 27006KT M M CLR 03/01 A2949 RMK AO2 SLP992 T00290013 52023 RVRNO $ W (270°) 6.9mph 2.9°C 1.3°C
17/03/19 01:56 EGVA 170156Z AUTO 27012KT M M FEW039 04/02 A2947 RMK AO2 SLP984 T00430017 RVRNO $ W (270°) 13.8mph 4.3°C 1.7°C
17/03/19 00:56 EGVA 170056Z AUTO 26010KT M M FEW025 05/04 A2945 RMK AO2 SLP978 T00540037 RVRNO $ W (260°) 11.5mph 5.4°C 3.7°C
17/03/19 00:41 EGVA 170041Z AUTO 26014KT M M FEW024 SCT030 SCT038 06/04 A2944 RMK AO2 SLP974 RVRNO $ W (260°) 16.1mph 6°C 4°C
17/03/19 00:21 EGVA 170021Z AUTO 25009KT M M FEW024 BKN039 06/04 A2944 RMK AO2 SLP974 RVRNO $ WSW (250°) 10.4mph 6°C 4°C
16/03/19 23:31 EGVA 162331Z AUTO 25010KT M M FEW027 BKN038 06/05 A2942 RMK AO2 SLP967 RVRNO $ WSW (250°) 11.5mph 6°C 5°C
16/03/19 23:16 EGVA 162316Z AUTO 25009KT M M FEW032 SCT041 SCT049 06/05 A2941 RMK AO2 SLP964 RVRNO $ WSW (250°) 10.4mph 6°C 5°C
16/03/19 22:06 EGVA 162206Z AUTO 26011KT M M FEW038 BKN046 07/05 A2940 RMK AO2 SLP960 RVRNO $ W (260°) 12.7mph 7°C 5°C
16/03/19 21:26 EGVA 162126Z AUTO 28015KT M -RA SCT014 SCT021 08/06 A2938 RMK AO2 SLP954 RVRNO $ -RA W (280°) 17.3mph 8°C 6°C
16/03/19 21:11 EGVA 162111Z AUTO 26018G23KT M -RA BKN014 OVC020 08/07 A2937 RMK AO2 SLP950 RVRNO $ -RA W (260°) 20.7mph 26.5mph 8°C 7°C
16/03/19 20:41 EGVA 162041Z AUTO 25016KT M -RA BKN018 BKN032 08/06 A2936 RMK AO2 SLP947 RVRNO $ -RA WSW (250°) 18.4mph 8°C 6°C
16/03/19 19:56 EGVA 161956Z AUTO 25020G25KT M -RA SCT012 SCT029 08/07 A2936 RMK AO2 PK WND 25029/10 SLP947 P0000 T00820067 RVRNO $ -RA WSW (250°) 23.0mph 28.8mph 8.2°C 6.7°C
16/03/19 19:31 EGVA 161931Z AUTO 25020G25KT M -RA FEW012 SCT032 09/07 A2935 RMK AO2 SLP943 RVRNO $ -RA WSW (250°) 23.0mph 28.8mph 9°C 7°C
16/03/19 19:06 EGVA 161906Z AUTO 23020G27KT M -RA SCT013 BKN031 10/08 A2934 RMK AO2 SLP940 RVRNO $ -RA SW (230°) 23.0mph 31.1mph 10°C 8°C
16/03/19 18:46 EGVA 161846Z AUTO 22020G28KT M -RA SCT014 SCT020 10/08 A2933 RMK AO2 SLP936 RVRNO $ -RA SW (220°) 23.0mph 32.2mph 10°C 8°C
16/03/19 17:56 EGVA 161756Z AUTO 22023G31KT M -RA BKN018 BKN023 10/08 A2935 RMK AO2 PK WND 21041/11 RAB08E17RAB31E42DZB42E45RAB49 SLP943 P0000 60000 T01000079 10122 20100 57023 RVRNO $ -RA SW (220°) 26.5mph 35.7mph 10°C 7.9°C
16/03/19 17:49 EGVA 161749Z AUTO 22022G34KT M -RA BKN018 BKN023 10/07 A2935 RMK AO2 RAB08E17RAB31E42DZB42E45RAB49 SLP943 RVRNO $ -RA SW (220°) 25.3mph 39.1mph 10°C 7°C
16/03/19 17:17 EGVA 161717Z AUTO 22026G41KT M M BKN018 BKN024 11/07 A2936 RMK AO2 RAB08E17 SLP946 RVRNO $ SW (220°) 29.9mph 47.2mph 11°C 7°C
16/03/19 16:39 EGVA 161639Z AUTO 22020G31KT M M OVC018 10/07 A2938 RMK AO2 SLP953 RVRNO $ SW (220°) 23.0mph 35.7mph 10°C 7°C
16/03/19 16:14 EGVA 161614Z AUTO 23026G38KT M SQ OVC020 11/07 A2939 RMK AO2 SLP957 RVRNO $ SQ SW (230°) 29.9mph 43.7mph 11°C 7°C
16/03/19 14:56 EGVA 161456Z AUTO 22024G35KT M M OVC024 11/07 A2942 RMK AO2 PK WND 23036/39 SLP967 T01090070 57035 RVRNO $ SW (220°) 27.6mph 40.3mph 10.9°C 7°C
16/03/19 13:56 EGVA 161356Z AUTO 22023G30KT M M OVC028 11/07 A2946 RMK AO2 PK WND 22034/12 SLP980 T01140065 RVRNO $ SW (220°) 26.5mph 34.5mph 11.4°C 6.5°C
16/03/19 13:18 EGVA 161318Z AUTO 22018G34KT 9999 OVC029 12/06 A2949 RMK AO2 SLP990 RVRNO $ SW (220°) 20.7mph 39.1mph 12°C 6°C
16/03/19 12:21 EGVA 161221Z AUTO 23023G33KT M M BKN032 12/06 A2951 RMK AO2 SLP997 RVRNO $ SW (230°) 26.5mph 38.0mph 12°C 6°C
16/03/19 11:46 EGVA 161146Z AUTO 24019G33KT M M SCT029 12/07 A2953 RMK AO2 SLP004 RVRNO $ WSW (240°) 21.9mph 38.0mph 12°C 7°C
16/03/19 10:56 EGVA 161056Z AUTO 24021G28KT M M BKN025 BKN031 11/07 A2956 RMK AO2 PK WND 23037/39 SLP014 T01090068 RVRNO $ WSW (240°) 24.2mph 32.2mph 10.9°C 6.8°C
16/03/19 09:56 EGVA 160956Z 24022G31KT 9999 BKN029 11/06 A2957 RMK AO2A PK WND 24034/0857 SLP018 T01060064 RVRNO $ WSW (240°) 25.3mph 35.7mph 10.6°C 6.4°C
16/03/19 08:56 EGVA 160856Z 24021G34KT 9999 BKN025 10/06 A2959 RMK AO2A PK WND 25034/47 RAE04 SLP024 P0000 60000 T01030063 57021 RVRNO $ WSW (240°) 24.2mph 39.1mph 10.3°C 6.3°C
16/03/19 08:40 EGVA 160840Z 24024G31KT 9999 OVC025 10/07 A2960 RMK AO2A RAE04 SLP028 RVRNO $ WSW (240°) 27.6mph 35.7mph 10°C 7°C
16/03/19 07:55 EGVA 160755Z 24017G27KT 9999 -RA BKN018 BKN024 10/08 A2962 RMK PK WND 22027/38 RAE03DZB03E12RAB51 SLP035 P0000 T00960080 RVRNO $ -RA WSW (240°) 19.6mph 31.1mph 9.6°C 8°C
16/03/19 06:55 EGVA 160655Z 23015KT 9999 -RA OVC014 10/08 A2964 RMK AO2A RAB54 SLP041 P0000 T00950083 RVRNO $ -RA SW (230°) 17.3mph 9.5°C 8.3°C
16/03/19 06:06 EGVA 160606Z 24014G21KT 9999 OVC014 10/08 A2966 RMK AO2A SLP048 RVRNO $ WSW (240°) 16.1mph 24.2mph 10°C 8°C
16/03/19 05:51 EGVA 160551Z AUTO 23016G24KT M M OVC015 10/08 A2966 RMK AO2 SLP048 RVRNO $ SW (230°) 18.4mph 27.6mph 10°C 8°C
16/03/19 04:56 EGVA 160456Z AUTO 24016G21KT M M OVC011 10/09 A2967 RMK AO2 SLP051 T00990088 RVRNO $ WSW (240°) 18.4mph 24.2mph 9.9°C 8.8°C
16/03/19 03:56 EGVA 160356Z AUTO 23013KT M M OVC010 10/09 A2969 RMK AO2 RAE46DZB46E54 SLP058 P0000 T00970091 RVRNO $ SW (230°) 15.0mph 9.7°C 9.1°C
16/03/19 03:46 EGVA 160346Z AUTO 23013KT M -RA OVC008 10/09 A2969 RMK AO2 SLP058 RVRNO $ -RA SW (230°) 15.0mph 10°C 9°C
16/03/19 03:06 EGVA 160306Z AUTO 24013KT M -RA BR BKN007 OVC011 10/10 A2971 RMK AO2 SLP065 RVRNO $ -RA BR WSW (240°) 15.0mph 10°C 10°C
16/03/19 02:21 EGVA 160221Z AUTO 23013KT M -RA BR OVC008 10/10 A2972 RMK AO2 SLP068 RVRNO $ -RA BR SW (230°) 15.0mph 10°C 10°C
16/03/19 02:01 EGVA 160201Z AUTO 23014KT M -RA BR BKN007 OVC015 10/10 A2974 RMK AO2 SLP075 RVRNO $ -RA BR SW (230°) 16.1mph 10°C 10°C
16/03/19 01:41 EGVA 160141Z AUTO 24017G25KT M -RA SCT008 OVC015 10/10 A2974 RMK AO2 SLP075 RVRNO $ -RA WSW (240°) 19.6mph 28.8mph 10°C 10°C
16/03/19 00:56 EGVA 160056Z AUTO 24017G23KT M -RA FEW007 OVC016 10/10 A2975 RMK AO2 PK WND 24026/25 SLP078 P0000 T01000100 RVRNO $ -RA WSW (240°) 19.6mph 26.5mph 10°C 10°C
16/03/19 00:26 EGVA 160026Z AUTO 25022G25KT M -RA BR SCT008 OVC015 10/10 A2976 RMK AO2 SLP082 RVRNO $ -RA BR WSW (250°) 25.3mph 28.8mph 10°C 10°C
16/03/19 00:17 EGVA 160017Z AUTO 24021G25KT 9999 -RA SCT008 OVC014 10/10 A2977 RMK AO2 CIG 008V014 SLP085 RVRNO $ -RA WSW (240°) 24.2mph 28.8mph 10°C 10°C
15/03/19 23:04 EGVA 152304Z AUTO 24014KT M -RA BR SCT006 OVC010 09/09 A2979 RMK AO2 DZB2258E00RAB00 SLP092 RVRNO $ -RA BR WSW (240°) 16.1mph 9°C 9°C
15/03/19 22:22 EGVA 152222Z AUTO 23008KT M M OVC006 09/09 A2981 RMK AO2 SLP099 RVRNO $ SW (230°) 9.2mph 9°C 9°C
15/03/19 21:21 EGVA 152121Z AUTO 25009KT M M BKN011 BKN029 09/08 A2982 RMK AO2 SLP102 RVRNO $ WSW (250°) 10.4mph 9°C 8°C
15/03/19 20:01 EGVA 152001Z AUTO 24009KT M M SCT029 BKN047 09/07 A2982 RMK AO2 SLP102 RVRNO $ WSW (240°) 10.4mph 9°C 7°C
15/03/19 19:51 EGVA 151951Z AUTO 25011KT M M BKN029 OVC048 09/07 A2982 RMK AO2 SLP102 RVRNO $ WSW (250°) 12.7mph 9°C 7°C
15/03/19 18:56 EGVA 151856Z AUTO 26009KT M M CLR 09/07 A2981 RMK AO2 SLP099 T00920070 RVRNO $ W (260°) 10.4mph 9.2°C 7°C
15/03/19 17:56 EGVA 151756Z AUTO 26016KT M M CLR 10/07 A2978 RMK AO2 SLP088 60000 T01020071 10130 20102 53013 RVRNO $ W (260°) 18.4mph 10.2°C 7.1°C
15/03/19 17:26 EGVA 151726Z AUTO 26019KT M M FEW026 SCT049 11/07 A2976 RMK AO2 SLP082 RVRNO $ W (260°) 21.9mph 11°C 7°C
15/03/19 17:11 EGVA 151711Z AUTO 24012KT 9999 BKN048 11/08 A2976 RMK AO2 SLP082 RVRNO $ WSW (240°) 13.8mph 11°C 8°C
15/03/19 16:36 EGVA 151636Z AUTO 26016G22KT M M BKN044 12/08 A2975 RMK AO2 SLP078 RVRNO $ W (260°) 18.4mph 25.3mph 12°C 8°C
15/03/19 15:56 EGVA 151556Z AUTO 26020G27KT M M SCT047 12/09 A2975 RMK AO2 PK WND 25029/30 SLP078 T01190086 RVRNO $ W (260°) 23.0mph 31.1mph 11.9°C 8.6°C
15/03/19 14:56 EGVA 151456Z 27021KT 9999 BKN049 12/09 A2974 RMK A02A DZE06 SLP075 P0000 60000 T01170091 50004 RVRNO $ W (270°) 24.2mph 11.7°C 9.1°C
15/03/19 14:08 EGVA 151408Z 28013KT 9999 BKN013 OVC020 11/10 A2976 RMK A02A RAB28E56DZB56E08 SLP082 RVRNO $ W (280°) 15.0mph 11°C 10°C
15/03/19 13:28 EGVA 151328Z 27023KT 9999 -RA SCT018 BKN025 12/10 A2974 RMK A02A RAB28 SLP075 RVRNO $ -RA W (270°) 26.5mph 12°C 10°C
15/03/19 12:56 EGVA 151256Z 26022G30KT 9999 BKN016 BKN028 13/10 A2974 RMK A02A PK WND 26030/38 SLP075 T01300098 RVRNO $ W (260°) 25.3mph 34.5mph 13°C 9.8°C
15/03/19 11:54 EGVA 151154Z 25019G31KT 9999 BKN014 12/10 A2974 RMK A02A PK WND 26034/17 SLP075 T01240096 10126 20110 50006 RVRNO $ WSW (250°) 21.9mph 35.7mph 12.4°C 9.6°C
15/03/19 10:55 EGVA 151055Z 26025G31KT 9999 BKN013 BKN018 12/10 A2972 RMK A02A PK WND 25034/31 SLP068 T01240096 RVRNO $ W (260°) 28.8mph 35.7mph 12.4°C 9.6°C
15/03/19 09:55 EGVA 150955Z 25020G29KT 9999 OVC014 12/10 A2972 RMK A02A PK WND 25029/48 SLP068 T01190095 RVRNO $ WSW (250°) 23.0mph 33.4mph 11.9°C 9.5°C
15/03/19 08:55 EGVA 150855Z 25017G25KT 9999 OVC013 12/09 A2972 RMK A02A PK WND 26027/18 SLP068 T01150094 52012 RVRNO $ WSW (250°) 19.6mph 28.8mph 11.5°C 9.4°C
15/03/19 07:56 EGVA 150756Z AUTO 24019G29KT M M OVC012 11/09 A2970 RMK AO2 PK WND 26029/25 SLP062 T01110094 RVRNO $ WSW (240°) 21.9mph 33.4mph 11.1°C 9.4°C
15/03/19 06:56 EGVA 150656Z 24018G27KT 9999 OVC012 11/09 A2969 RMK AO2A PK WND 24031/20 SLP058 T01110092 RVRNO $ WSW (240°) 20.7mph 31.1mph 11.1°C 9.2°C
15/03/19 05:56 EGVA 150556Z COR AUTO 25020G25KT 7SM OVC013 11/09 A2968 RMK AO2 PK WND 24029/14 SLP055 T01100089 10111 20102 53004 RVRNO $ COR 0635 WSW (250°) 23.0mph 28.8mph 11°C 8.9°C
15/03/19 05:56 EGVA 150556Z AUTO 25020G25KT M M OVC013 11/09 A2968 RMK AO2 PK WND 24029/14 SLP055 T01100089 10111 20102 53004 RVRNO $ WSW (250°) 23.0mph 28.8mph 11°C 8.9°C
15/03/19 04:56 EGVA 150456Z AUTO 25019G29KT M M OVC013 11/09 A2967 RMK AO2 PK WND 25029/49 SLP051 T01090090 RVRNO $ WSW (250°) 21.9mph 33.4mph 10.9°C 9°C
15/03/19 03:56 EGVA 150356Z AUTO 25021G28KT M M OVC011 11/10 A2967 RMK AO2 PK WND 25029/44 SLP051 T01110095 RVRNO $ WSW (250°) 24.2mph 32.2mph 11.1°C 9.5°C
15/03/19 03:21 EGVA 150321Z AUTO 25016G27KT M M OVC010 11/10 A2966 RMK AO2 SLP047 RVRNO $ WSW (250°) 18.4mph 31.1mph 11°C 10°C
15/03/19 02:56 EGVA 150256Z AUTO 25019G28KT M M OVC009 11/10 A2967 RMK AO2 PK WND 26031/00 SLP051 T01080099 56010 RVRNO $ WSW (250°) 21.9mph 32.2mph 10.8°C 9.9°C
15/03/19 01:56 EGVA 150156Z AUTO 25022G30KT M M OVC008 11/10 A2967 RMK AO2 PK WND 26030/36 SLP051 T01060098 RVRNO $ WSW (250°) 25.3mph 34.5mph 10.6°C 9.8°C
15/03/19 00:56 EGVA 150056Z AUTO 25024G29KT M M OVC008 10/10 A2968 RMK AO2 PK WND 25031/40 SLP054 T01040099 RVRNO $ WSW (250°) 27.6mph 33.4mph 10.4°C 9.9°C
15/03/19 00:11 EGVA 150011Z AUTO 25023G27KT M M OVC009 10/10 A2969 RMK AO2 SLP058 RVRNO $ WSW (250°) 26.5mph 31.1mph 10°C 10°C
14/03/19 23:01 EGVA 142301Z AUTO 24008KT M BR BKN007 BKN011 OVC021 09/09 A2974 RMK AO2 SLP075 RVRNO $ BR WSW (240°) 9.2mph 9°C 9°C
14/03/19 22:51 EGVA 142251Z AUTO 24008KT M M BKN010 BKN021 OVC027 10/08 A2974 RMK AO2 SLP075 RVRNO $ WSW (240°) 9.2mph 10°C 8°C
14/03/19 22:06 EGVA 142206Z AUTO 23010KT 9999 BKN039 BKN048 BKN065 10/07 A2975 RMK AO2 SLP079 RVRNO $ SW (230°) 11.5mph 10°C 7°C
14/03/19 20:56 EGVA 142056Z AUTO 25011KT M M CLR 10/06 A2975 RMK AO2 SLP079 T00950060 50002 RVRNO $ WSW (250°) 12.7mph 9.5°C 6°C
14/03/19 19:56 EGVA 141956Z AUTO 25011KT M M SCT130 09/07 A2976 RMK AO2 SLP082 T00940067 RVRNO $ WSW (250°) 12.7mph 9.4°C 6.7°C
14/03/19 18:56 EGVA 141856Z AUTO 28007KT M M CLR 10/04 A2975 RMK AO2 SLP079 T00950037 RVRNO $ W (280°) 8.1mph 9.5°C 3.7°C
14/03/19 17:56 EGVA 141756Z AUTO 30006KT M M SCT050 11/03 A2975 RMK AO2 SLP079 T01070028 10135 20107 52023 RVRNO $ WNW (300°) 6.9mph 10.7°C 2.8°C
14/03/19 16:56 EGVA 141656Z AUTO 29015G21KT M M CLR 11/02 A2974 RMK AO2 PK WND 28030/07 SLP075 T01130021 RVRNO $ WNW (290°) 17.3mph 24.2mph 11.3°C 2.1°C
14/03/19 15:56 EGVA 141556Z AUTO 28021G27KT M M CLR 12/02 A2970 RMK AO2 PK WND 28032/1459 SLP062 T01200016 RVRNO $ W (280°) 24.2mph 31.1mph 12°C 1.6°C
14/03/19 15:26 EGVA 141526Z 30015G24KT M M CLR 12/03 A2969 RMK SLP058 RVRNO $ WNW (300°) 17.3mph 27.6mph 12°C 3°C
14/03/19 12:58 EGVA 141258Z 30025G32KT 9999 FEW047 CLR 13/02 A2964 RMK AO2A PK WND 29039/1246 SLP041 T01330022 RVRNO $ WNW (300°) 28.8mph 36.8mph 13.3°C 2.2°C
14/03/19 11:58 EGVA 141158Z 30021G34KT 9999 BKN050 13/04 A2962 RMK AO2A PK WND 32034/52 RAE08 SLPNO P0000 60000 T01300039 10133 20086 53011 RVRNO $ WNW (300°) 24.2mph 39.1mph 13°C 3.9°C
14/03/19 10:58 EGVA 141058Z 27018G24KT 9000 -RA BKN027 BKN031 11/10 A2961 RMK AO2A PK WND 26033/0956 SLPNO P0000 T01100097 RVRNO $ -RA W (270°) 20.7mph 27.6mph 11°C 9.7°C